Pretoria Irene, South Africa
Current Conditions -  °F | °C
As of 10:00 PM on Sunday 25 Jan 2015 (Local Time) from FAOR Reporting Station
Rain Showers Rain Showers  
Wind Chill: 61°   Ceiling: 4500
Heat Index: 61°   Visibility: 6mi
Dew Point: 54°   Wind: 21mph
Humidity: 77%   Direction: 250°WSW
Pressure: 30.21"   Gusts: NA
Location:  25.92°S, 28.22°E
Report Text: FAOR 252000Z 25018KT 9999 -SHRA BKN045 SCT050TCU 16/12 Q1023 TEMPO 4000 TSRA FEW050CB
Loading
Personal Weather Stations






























Interactive Weather Map New forecast layout! Learn more

10-Day Weather Forecast

Advertisements
Track Severe Weather on mobile